This is the latest recevied weather packets stored in our database for station/object DO7ZT-10. If no packets are shown the sender has not sent any weather packets the latest 10 day(s).
| Time | Temp. | Humidity | Pressure | Rain* | Wind** | Luminosity | Snow |
|---|---|---|---|---|---|---|---|
| 1787666486 | 20.56° C | 44% | 1018.1 hPa | - | - | - | - |
| 1787665586 | 21.11° C | 42% | 1017.8 hPa | - | - | - | - |
| 1787664685 | 22.22° C | 40% | 1017.5 hPa | - | - | - | - |
| 1787663785 | 22.22° C | 40% | 1017.4 hPa | - | - | - | - |
| 1787662885 | 22.78° C | 37% | 1017.4 hPa | - | - | - | - |
| 1787661985 | 22.78° C | 37% | 1017.4 hPa | - | - | - | - |
| 1787661085 | 22.22° C | 40% | 1017.2 hPa | - | - | - | - |
| 1787660185 | 22.22° C | 39% | 1017.2 hPa | - | - | - | - |
| 1787659285 | 22.22° C | 39% | 1017.1 hPa | - | - | - | - |
| 1787658385 | 22.22° C | 41% | 1017.2 hPa | - | - | - | - |
| 1787657485 | 22.22° C | 43% | 1017.4 hPa | - | - | - | - |
| 1787656585 | 21.67° C | 44% | 1017.4 hPa | - | - | - | - |
| 1787655685 | 22.22° C | 46% | 1017.4 hPa | - | - | - | - |
| 1787654785 | 21.11° C | 46% | 1017.6 hPa | - | - | - | - |
| 1787653885 | 21.11° C | 47% | 1017.8 hPa | - | - | - | - |
| 1787652985 | 21.11° C | 47% | 1017.9 hPa | - | - | - | - |
| 1787652084 | 20.56° C | 51% | 1017.9 hPa | - | - | - | - |
| 1787651184 | 20° C | 48% | 1018 hPa | - | - | - | - |
| 1787650284 | 19.44° C | 49% | 1018 hPa | - | - | - | - |
| 1787649384 | 19.44° C | 51% | 1018 hPa | - | - | - | - |
| 1787648484 | 18.89° C | 51% | 1018.1 hPa | - | - | - | - |
| 1787647584 | 18.33° C | 53% | 1018.2 hPa | - | - | - | - |
| 1787646684 | 18.33° C | 54% | 1018.3 hPa | - | - | - | - |
| 1787645784 | 17.78° C | 54% | 1018.4 hPa | - | - | - | - |
| 1787644884 | 17.78° C | 57% | 1018.4 hPa | - | - | - | - |
* Rain since midnight (hover to see other rain measurements)
** Current wind speed in m/s (hover to see current wind gust speed)